Observations for LAWRENCE MUNICIPAL, MA (LWM)

KLWM 241654Z 29010KT 10SM CLR 13/02 A3009 RMK AO2 SLP191 T01280017  
KLWM 241554Z 30014G19KT 10SM CLR 12/03 A3009 RMK AO2 SLP190 T01170028   
KLWM 241454Z 29007G21KT 10SM SCT030 SCT035 11/03 A3010 RMK AO2 SLP193 T01060033 51010   
KLWM 241354Z 24008KT 10SM CLR 08/04 A3010 RMK AO2 SLP192 T00830044  
KLWM 241254Z 24009KT 10SM CLR 07/04 A3009 RMK AO2 SLP189 T00670039  
KLWM 241154Z 24007KT 10SM CLR 06/03 A3007 RMK AO2 SLP182 70002 T00560033 10056 20039 53021  
KLWM 241054Z AUTO 23007KT 10SM CLR 06/03 A3004 RMK AO2 SLP174 T00560033 
KLWM 240954Z AUTO 22008KT 10SM CLR 05/03 A3002 RMK AO2 SLP166 T00500028 
KLWM 240854Z AUTO 23008KT 10SM CLR 05/03 A3001 RMK AO2 SLP161 T00500028 58012   
KLWM 240803Z AUTO 23008KT 10SM SCT014 04/02 A3001 RMK AO2 T00440022
KLWM 240754Z AUTO 24008KT 10SM BKN014 04/02 A3002 RMK AO2 SLP166 T00440022  
KLWM 240710Z AUTO 22009KT 10SM BKN014 04/02 A3002 RMK AO2 T00390022
KLWM 240718Z AUTO 22011KT 10SM SCT014 04/02 A3002 RMK AO2 T00440022
KLWM 240654Z AUTO 22009KT 10SM BKN016 04/02 A3003 RMK AO2 SLP169 T00390022  
KLWM 240634Z AUTO 22007KT 10SM SCT007 OVC017 04/02 A3003 RMK AO2 T00390017
KLWM 240554Z AUTO 21006KT 10SM OVC007 03/02 A3004 RMK AO2 CIG 005V010 SLP174 60000 T00330017 10033 20028 58025  
KLWM 240454Z AUTO 22007KT 10SM BKN006 BKN017 03/02 A3006 RMK AO2 SLP180 T00330017 400671033 
KLWM 240354Z AUTO 21007KT 10SM BKN006 OVC016 03/02 A3012 RMK AO2 PRESFR SLP198 T00330017
KLWM 240254Z 21006KT 3SM BR OVC004 03/02 A3018 RMK AO2 RAB05E39 CIG 003V007 SLP220 P0000 60000 T00280017 58033  
KLWM 240154Z 20004KT 7SM BKN006 BKN010 OVC013 03/01 A3022 RMK AO2 RAE04B28E51 SLP235 P0000 T00280011
KLWM 240054Z 21006KT 10SM -RA BKN009 OVC015 03/01 A3026 RMK AO2 RAE01B37 CIG 007V012 PRESFR SLP247 P0000 T00330011  
KLWM 232354Z 00000KT 10SM -RA BKN008 OVC016 03/02 A3027 RMK AO2 CIG 006V011 SLP253 P0001 60002 T00330017 10067 20033 58055  
KLWM 232333Z 15004KT 10SM -RA BKN014 OVC018 03/01 A3031 RMK AO2 PRESFR P0001 T00330011
KLWM 232344Z 14005KT 10SM -RA SCT010 OVC016 03/01 A3028 RMK AO2 PRESFR P0001 T00330011
KLWM 232349Z 17004KT 10SM -RA BKN008 BKN014 OVC019 03/02 A3028 RMK AO2 CIG 006V012 P0001
KLWM 232254Z 16005KT 10SM -RA OVC024 03/01 A3035 RMK AO2 SLP279 P0001 T00330011 
KLWM 232154Z 14003KT 6SM -RA BKN024 BKN028 OVC034 04/00 A3040 RMK AO2 RAB06 SLP296 P0000 T00390000  
KLWM 232142Z VRB03KT 10SM -RA BKN026 OVC034 04/M01 A3042 RMK AO2 RAB06 P0000 T00391006
KLWM 232054Z VRB05KT 10SM BKN040 OVC050 04/M02 A3044 RMK AO2 SLP308 60000 T00441017 58039   
KLWM 231954Z 12006KT 10SM FEW049 OVC060 05/M03 A3047 RMK AO2 RAB12E33 SLP321 P0000 T00501028
KLWM 231854Z 11007KT 080V140 10SM SCT070 OVC090 06/M06 A3054 RMK AO2 SLP343 T00561056   
KLWM 231754Z 12004KT 10SM FEW041 FEW060 OVC100 06/M07 A3055 RMK AO2 PRESFR SLP348 I6001 T00611072 10061 21033 58040 
KLWM 231654Z 08008KT 10SM BKN028 BKN033 BKN120 06/M05 A3062 RMK AO2 SLP369 T00611050